Tokuyo Maru No.15 — JD2184 — position and weather

sailwx.info

Track history (hours):
 
Tides and Currents Weather Stations Pressure Air Temp Water Temp Dewpoint Dewpoint Depression Visibility Wind Speed Wind Dir Waves Ship Positions

Tokuyo Maru No.15

Last reported at 2017-May-19 08:49 UTC. Time now 2017-May-29 22:45 UTC.
Position N 35°14' E 139°46'.
Warning: this ship's position is 10 days out of date.

Length 66 m; draft 4.5 m.

Type: Tanker. MMSI: 431402034.

Date/timePositionNaut miles runAvg speedWind from/ knotsBaromVisibWave heightAir tempDewpointWater temp
2017-May-19 08:49N 35°14' E 139°46'412.2
2017-May-19 08:30N 35°18' E 139°44'611.7
2017-May-19 08:00N 35°23' E 139°43'611.8
2017-May-19 07:30N 35°28' E 139°48'611.8
2017-May-19 07:00N 35°31' E 139°54'2 0.2
2017-May-18 22:49N 35°29' E 139°56'0 0.0
2017-May-18 22:22N 35°29' E 139°56'0 0.0
2017-May-18 21:58N 35°29' E 139°56'0 0.0
2017-May-18 21:28N 35°29' E 139°56'0 0.0
2017-May-18 20:55N 35°29' E 139°56'0 0.0
2017-May-18 20:28N 35°29' E 139°56'0 0.0
2017-May-18 19:55N 35°29' E 139°56'0 0.0
2017-May-18 19:28N 35°29' E 139°56'0 0.0
2017-May-18 18:58N 35°29' E 139°56'0 0.0
2017-May-18 08:46N 35°29' E 139°56'0 0.0
2017-May-18 08:28N 35°29' E 139°56'0 0.0
2017-May-18 06:13N 35°29' E 139°56'0 0.0
2017-May-18 05:55N 35°29' E 139°56'0 0.0
2017-May-18 05:28N 35°29' E 139°56'0 0.0
2017-May-18 03:52N 35°29' E 139°56'0 0.0
2017-May-18 02:07N 35°29' E 139°56'0 0.0
2017-May-17 21:40N 35°29' E 139°56'0 0.0
2017-May-17 21:07N 35°29' E 139°56'0 0.0
2017-May-17 20:58N 35°29' E 139°56'0 0.0
2017-May-17 20:25N 35°29' E 139°56'0 0.0
2017-May-17 19:52N 35°29' E 139°56'0 0.0
2017-May-17 19:22N 35°29' E 139°56'0 0.0
2017-May-17 18:55N 35°29' E 139°56'0 0.0
2017-May-17 16:12N 35°29' E 139°56'2 9.3
2017-May-17 16:00N 35°29' E 139°53'611.6
2017-May-17 15:30N 35°26' E 139°48'611.4
2017-May-17 15:00N 35°21' E 139°44'610.8
2017-May-17 14:29N 35°15' E 139°47'24710.2
2017-May-16 14:15N 34°05' E 134°59'1811.1
2017-May-16 12:39N 34°23' E 135°03'212.1
2017-May-16 12:27N 34°24' E 135°06'712.3
2017-May-16 11:53N 34°28' E 135°12'512.4
2017-May-16 11:30N 34°31' E 135°17'612.3
2017-May-16 11:00N 34°33' E 135°24'1 0.1
2017-May-16 04:38N 34°33' E 135°25'1 7.3
2017-May-16 04:27N 34°33' E 135°24'4 8.2
2017-May-16 03:59N 34°32' E 135°19'0 0.0
2017-May-16 03:30N 34°32' E 135°19'0 0.1
2017-May-16 02:44N 34°32' E 135°19'0 0.2
2017-May-16 02:30N 34°32' E 135°19'0 0.0
2017-May-16 01:57N 34°32' E 135°19'0 0.0
2017-May-16 01:30N 34°32' E 135°19'0 0.0
2017-May-16 00:59N 34°32' E 135°19'0 0.0
2017-May-16 00:30N 34°32' E 135°19'0 0.0
2017-May-16 00:00N 34°32' E 135°19'0 0.0
2017-May-15 23:30N 34°32' E 135°19'0 0.0
2017-May-15 23:00N 34°32' E 135°19'3 5.5
2017-May-15 22:30N 34°30' E 135°17'611.9
2017-May-15 21:58N 34°27' E 135°10'1510.7
2017-May-15 20:36N 34°15' E 134°59'110.2
2017-May-15 20:29N 34°14' E 134°60'711.7
2017-May-15 19:52N 34°07' E 135°00'  
Track history (hours):
 
Tides and Currents Weather Stations Pressure Air Temp Water Temp Dewpoint Dewpoint Depression Visibility Wind Speed Wind Dir Waves Ship Positions

Tokuyo Maru No.15

Last reported at 2017-May-19 08:49 UTC. Time now 2017-May-29 22:45 UTC.
Position N 35°14' E 139°46'.
Warning: this ship's position is 10 days out of date.

Length 66 m; draft 4.5 m.

Type: Tanker. MMSI: 431402034.

Date/timePositionNaut miles runAvg speedWind from/ knotsBaromVisibWave heightAir tempDewpointWater temp
2017-May-19 08:49N 35°14' E 139°46'412.2
2017-May-19 08:30N 35°18' E 139°44'611.7
2017-May-19 08:00N 35°23' E 139°43'611.8
2017-May-19 07:30N 35°28' E 139°48'611.8
2017-May-19 07:00N 35°31' E 139°54'2 0.2
2017-May-18 22:49N 35°29' E 139°56'0 0.0
2017-May-18 22:22N 35°29' E 139°56'0 0.0
2017-May-18 21:58N 35°29' E 139°56'0 0.0
2017-May-18 21:28N 35°29' E 139°56'0 0.0
2017-May-18 20:55N 35°29' E 139°56'0 0.0
2017-May-18 20:28N 35°29' E 139°56'0 0.0
2017-May-18 19:55N 35°29' E 139°56'0 0.0
2017-May-18 19:28N 35°29' E 139°56'0 0.0
2017-May-18 18:58N 35°29' E 139°56'0 0.0
2017-May-18 08:46N 35°29' E 139°56'0 0.0
2017-May-18 08:28N 35°29' E 139°56'0 0.0
2017-May-18 06:13N 35°29' E 139°56'0 0.0
2017-May-18 05:55N 35°29' E 139°56'0 0.0
2017-May-18 05:28N 35°29' E 139°56'0 0.0
2017-May-18 03:52N 35°29' E 139°56'0 0.0
2017-May-18 02:07N 35°29' E 139°56'0 0.0
2017-May-17 21:40N 35°29' E 139°56'0 0.0
2017-May-17 21:07N 35°29' E 139°56'0 0.0
2017-May-17 20:58N 35°29' E 139°56'0 0.0
2017-May-17 20:25N 35°29' E 139°56'0 0.0
2017-May-17 19:52N 35°29' E 139°56'0 0.0
2017-May-17 19:22N 35°29' E 139°56'0 0.0
2017-May-17 18:55N 35°29' E 139°56'0 0.0
2017-May-17 16:12N 35°29' E 139°56'2 9.3
2017-May-17 16:00N 35°29' E 139°53'611.6
2017-May-17 15:30N 35°26' E 139°48'611.4
2017-May-17 15:00N 35°21' E 139°44'610.8
2017-May-17 14:29N 35°15' E 139°47'24710.2
2017-May-16 14:15N 34°05' E 134°59'1811.1
2017-May-16 12:39N 34°23' E 135°03'212.1
2017-May-16 12:27N 34°24' E 135°06'712.3
2017-May-16 11:53N 34°28' E 135°12'512.4
2017-May-16 11:30N 34°31' E 135°17'612.3
2017-May-16 11:00N 34°33' E 135°24'1 0.1
2017-May-16 04:38N 34°33' E 135°25'1 7.3
2017-May-16 04:27N 34°33' E 135°24'4 8.2
2017-May-16 03:59N 34°32' E 135°19'0 0.0
2017-May-16 03:30N 34°32' E 135°19'0 0.1
2017-May-16 02:44N 34°32' E 135°19'0 0.2
2017-May-16 02:30N 34°32' E 135°19'0 0.0
2017-May-16 01:57N 34°32' E 135°19'0 0.0
2017-May-16 01:30N 34°32' E 135°19'0 0.0
2017-May-16 00:59N 34°32' E 135°19'0 0.0
2017-May-16 00:30N 34°32' E 135°19'0 0.0
2017-May-16 00:00N 34°32' E 135°19'0 0.0
2017-May-15 23:30N 34°32' E 135°19'0 0.0
2017-May-15 23:00N 34°32' E 135°19'3 5.5
2017-May-15 22:30N 34°30' E 135°17'611.9
2017-May-15 21:58N 34°27' E 135°10'1510.7
2017-May-15 20:36N 34°15' E 134°59'110.2
2017-May-15 20:29N 34°14' E 134°60'711.7
2017-May-15 19:52N 34°07' E 135°00'  

Dump ship's entire track history